Time;durP1;ratioP1;P1;durP2;ratioP2;P2;SDS_P1;SDS_P2;PMS_P1;PMS_P2;Temp;Humidity;BMP_temperature;BMP_pressure;BME280_temperature;BME280_humidity;BME280_pressure;Samples;Min_cycle;Max_cycle;Signal;HPM_P1;HPM_P2
2022/09/23 00:02:12;;;;;;;2.50;2.30;;;8.90;99.90;;;;;;5053447;28;20206;-85
2022/09/23 00:04:41;;;;;;;2.97;2.38;;;8.90;99.90;;;;;;5053428;28;20212;-86
2022/09/23 00:07:09;;;;;;;2.50;2.30;;;8.80;99.90;;;;;;5053269;28;20218;-86
2022/09/23 00:09:37;;;;;;;2.58;2.35;;;8.80;99.90;;;;;;5052585;28;20224;-86
2022/09/23 00:12:06;;;;;;;3.08;2.72;;;8.70;99.90;;;;;;5052912;28;20215;-86
2022/09/23 00:14:38;;;;;;;2.55;2.22;;;8.70;99.90;;;;;;5052693;28;20256;-86
2022/09/23 00:17:06;;;;;;;1.98;1.83;;;8.70;99.90;;;;;;5052797;28;20213;-86
2022/09/23 00:19:39;;;;;;;2.58;2.38;;;8.60;99.90;;;;;;5052646;28;20225;-86
2022/09/23 00:22:07;;;;;;;2.42;2.22;;;8.60;99.90;;;;;;5053158;28;20210;-86
2022/09/23 00:24:35;;;;;;;2.65;2.38;;;8.50;99.90;;;;;;5052750;28;20265;-85
2022/09/23 00:27:04;;;;;;;2.95;2.10;;;8.50;99.90;;;;;;5052683;28;20210;-86
2022/09/23 00:29:33;;;;;;;2.15;2.05;;;8.50;99.90;;;;;;5052174;28;20232;-85
2022/09/23 00:32:01;;;;;;;2.83;2.47;;;8.60;99.90;;;;;;5052727;28;20271;-86
2022/09/23 00:34:30;;;;;;;2.67;2.45;;;8.60;99.90;;;;;;5052695;28;20208;-86
2022/09/23 00:36:59;;;;;;;4.43;2.70;;;8.60;99.90;;;;;;5052539;28;20213;-86
2022/09/23 00:39:28;;;;;;;2.35;2.15;;;8.60;99.90;;;;;;5052343;28;20233;-86
2022/09/23 00:41:56;;;;;;;2.35;2.15;;;8.50;99.90;;;;;;5052484;28;20208;-86
2022/09/23 00:44:55;;;;;;;3.38;2.40;;;8.60;99.90;;;;;;5052858;28;20213;-86
2022/09/23 00:47:33;;;;;;;5.72;2.38;;;8.60;99.90;;;;;;4972340;28;20208;-85
2022/09/23 00:50:07;;;;;;;2.72;2.53;;;8.60;99.90;;;;;;5039575;28;20228;-85
2022/09/23 00:52:38;;;;;;;2.05;1.95;;;8.50;99.90;;;;;;5052389;28;20197;-85
2022/09/23 00:55:10;;;;;;;4.82;2.22;;;8.50;99.90;;;;;;5052317;28;20206;-86
2022/09/23 00:57:40;;;;;;;1.70;1.60;;;8.50;99.90;;;;;;5053203;28;20206;-86
2022/09/23 01:00:10;;;;;;;2.53;2.30;;;8.50;99.90;;;;;;5052349;28;20248;-86
2022/09/23 01:02:38;;;;;;;2.08;1.85;;;8.50;99.90;;;;;;5052572;28;20209;-86
2022/09/23 01:05:08;;;;;;;2.95;2.55;;;8.50;99.90;;;;;;5052555;28;20282;-86
2022/09/23 01:07:38;;;;;;;2.20;2.08;;;8.50;99.90;;;;;;5051999;28;20208;-86
2022/09/23 01:10:09;;;;;;;2.05;1.85;;;8.50;99.90;;;;;;5052271;28;20229;-86
2022/09/23 01:13:03;;;;;;;2.60;2.40;;;8.50;99.90;;;;;;5052819;28;20206;-86
2022/09/23 01:15:41;;;;;;;2.05;1.90;;;8.50;99.90;;;;;;5052247;28;20221;-86
2022/09/23 01:18:17;;;;;;;1.77;1.67;;;8.50;99.90;;;;;;5052024;28;20198;-86
2022/09/23 01:21:08;;;;;;;2.33;2.13;;;8.50;99.90;;;;;;5051962;28;20225;-85
2022/09/23 01:24:08;;;;;;;2.58;1.92;;;8.40;99.90;;;;;;5056139;28;20198;-86
2022/09/23 01:27:00;;;;;;;2.28;2.00;;;8.40;99.90;;;;;;5056100;28;20201;-86
2022/09/23 01:30:12;;;;;;;1.70;1.60;;;8.50;99.90;;;;;;5055857;28;20248;-86
2022/09/23 01:33:04;;;;;;;1.85;1.75;;;8.50;99.90;;;;;;5055889;28;20217;-86
2022/09/23 01:35:46;;;;;;;1.70;1.60;;;8.50;99.90;;;;;;5055781;28;20205;-86
2022/09/23 01:38:31;;;;;;;1.65;1.55;;;8.50;99.90;;;;;;5055533;28;20214;-85
2022/09/23 01:41:05;;;;;;;2.35;2.15;;;8.50;99.90;;;;;;5055754;28;20222;-86
2022/09/23 01:43:40;;;;;;;1.90;1.80;;;8.50;99.90;;;;;;5055797;28;20216;-86
2022/09/23 01:46:16;;;;;;;1.80;1.70;;;8.60;99.90;;;;;;5056118;28;20205;-86
2022/09/23 01:48:51;;;;;;;2.20;2.00;;;8.50;99.90;;;;;;5055549;28;20228;-86
2022/09/23 01:51:24;;;;;;;2.20;2.00;;;8.50;99.90;;;;;;5055819;28;20213;-86
2022/09/23 01:53:58;;;;;;;1.80;1.70;;;8.50;99.90;;;;;;5055613;28;20225;-86
2022/09/23 01:56:31;;;;;;;1.85;1.75;;;8.50;99.90;;;;;;5055448;28;20221;-86
2022/09/23 01:59:08;;;;;;;1.88;1.77;;;8.40;99.90;;;;;;5055272;28;20221;-86
2022/09/23 02:01:41;;;;;;;1.23;1.23;;;8.40;99.90;;;;;;5055308;28;20217;-86
2022/09/23 02:04:17;;;;;;;2.22;2.03;;;8.30;99.90;;;;;;5055949;28;20204;-86
2022/09/23 02:06:51;;;;;;;1.38;1.30;;;8.30;99.90;;;;;;5055532;28;20198;-86
2022/09/23 02:09:24;;;;;;;1.65;1.55;;;8.30;99.90;;;;;;5054923;28;20236;-86
2022/09/23 02:12:00;;;;;;;2.03;1.80;;;8.30;99.90;;;;;;5055005;28;20210;-86
2022/09/23 02:14:33;;;;;;;2.22;1.65;;;8.30;99.90;;;;;;5055054;28;20209;-86
2022/09/23 02:17:07;;;;;;;2.03;1.92;;;8.30;99.90;;;;;;5055190;28;20217;-86
2022/09/23 02:19:42;;;;;;;2.67;1.63;;;8.20;99.90;;;;;;5054718;28;20251;-86
2022/09/23 02:22:16;;;;;;;2.42;2.22;;;8.20;99.90;;;;;;5055092;28;20208;-85
2022/09/23 02:24:44;;;;;;;1.95;1.80;;;8.20;99.90;;;;;;5054647;28;20201;-86
2022/09/23 02:27:20;;;;;;;1.58;1.48;;;8.20;99.90;;;;;;5054951;28;20206;-86
2022/09/23 02:29:55;;;;;;;1.75;1.65;;;8.20;99.90;;;;;;5054476;28;20304;-86
2022/09/23 02:32:30;;;;;;;1.52;1.42;;;8.20;99.90;;;;;;5053905;28;20210;-85
2022/09/23 02:35:09;;;;;;;2.28;2.08;;;8.20;99.90;;;;;;5054814;28;20228;-85
2022/09/23 02:37:46;;;;;;;2.55;2.22;;;8.20;99.90;;;;;;5054411;28;20210;-86
2022/09/23 02:40:22;;;;;;;1.38;1.30;;;8.20;99.90;;;;;;5054222;28;20217;-86
2022/09/23 02:43:01;;;;;;;2.00;1.90;;;8.20;99.90;;;;;;5054591;28;20213;-86
2022/09/23 02:45:29;;;;;;;1.85;1.75;;;8.20;99.90;;;;;;5054515;28;20208;-86
2022/09/23 02:48:05;;;;;;;1.90;1.80;;;8.20;99.90;;;;;;5054575;28;20260;-86
2022/09/23 02:50:35;;;;;;;1.90;1.80;;;8.20;99.90;;;;;;5054221;28;20213;-86
2022/09/23 02:53:03;;;;;;;2.42;2.22;;;8.20;99.90;;;;;;5054414;28;20221;-86
2022/09/23 02:55:32;;;;;;;2.65;1.95;;;8.20;99.90;;;;;;5054699;28;20217;-86
2022/09/23 02:58:02;;;;;;;4.30;2.05;;;8.20;99.90;;;;;;5054299;28;20209;-86
2022/09/23 03:00:41;;;;;;;2.35;2.17;;;8.20;99.90;;;;;;5053772;28;20226;-86
2022/09/23 03:03:27;;;;;;;2.13;2.03;;;8.20;99.90;;;;;;5054314;28;20213;-85
2022/09/23 03:05:59;;;;;;;2.42;2.10;;;8.20;99.90;;;;;;5054048;28;20205;-86
2022/09/23 03:08:41;;;;;;;1.73;1.63;;;8.20;99.90;;;;;;5054091;28;20226;-86
2022/09/23 03:11:12;;;;;;;2.00;1.90;;;8.20;99.90;;;;;;5054336;28;20202;-86
2022/09/23 03:13:55;;;;;;;1.75;1.65;;;8.20;99.90;;;;;;5053820;28;20213;-86
2022/09/23 03:16:34;;;;;;;1.85;1.75;;;8.20;99.90;;;;;;5053868;28;20363;-86
2022/09/23 03:19:16;;;;;;;2.10;2.00;;;8.20;99.90;;;;;;5054044;28;20265;-86
2022/09/23 03:21:51;;;;;;;2.20;1.98;;;8.20;99.90;;;;;;5053666;28;20248;-86
2022/09/23 03:24:21;;;;;;;2.22;1.58;;;8.20;99.90;;;;;;5053577;28;20209;-86
2022/09/23 03:26:52;;;;;;;1.73;1.63;;;8.20;99.90;;;;;;5053917;28;20219;-86
2022/09/23 03:29:22;;;;;;;1.80;1.70;;;8.20;99.90;;;;;;5053326;28;20240;-86
2022/09/23 03:31:51;;;;;;;2.33;2.13;;;8.20;99.90;;;;;;5053509;28;20198;-86
2022/09/23 03:34:24;;;;;;;2.25;2.13;;;8.20;99.90;;;;;;5054015;28;20256;-86
2022/09/23 03:37:00;;;;;;;1.95;1.85;;;8.20;99.90;;;;;;5053564;28;20209;-86
2022/09/23 03:39:34;;;;;;;2.20;2.05;;;8.20;99.90;;;;;;5053261;28;20222;-86
2022/09/23 03:42:06;;;;;;;2.25;2.05;;;8.10;99.90;;;;;;5052947;28;20221;-85
2022/09/23 03:44:37;;;;;;;1.98;1.85;;;8.10;99.90;;;;;;5052941;28;20206;-86
2022/09/23 03:47:06;;;;;;;1.77;1.67;;;8.10;99.90;;;;;;5053560;28;20216;-86
2022/09/23 03:49:38;;;;;;;2.47;2.28;;;8.10;99.90;;;;;;5053182;28;20222;-86
2022/09/23 03:52:07;;;;;;;3.85;2.17;;;8.00;99.90;;;;;;5053628;28;20208;-86
2022/09/23 03:54:36;;;;;;;1.92;1.83;;;8.00;99.90;;;;;;5053103;28;20205;-86
2022/09/23 03:57:04;;;;;;;2.08;1.90;;;7.90;99.90;;;;;;5053066;28;20252;-86
2022/09/23 03:59:32;;;;;;;2.33;2.17;;;7.90;99.90;;;;;;5052754;28;20232;-86
2022/09/23 04:02:01;;;;;;;2.17;2.08;;;7.90;99.90;;;;;;5053050;28;20229;-85
2022/09/23 04:04:31;;;;;;;2.03;1.92;;;7.80;99.90;;;;;;5053265;28;20238;-86
2022/09/23 04:06:59;;;;;;;2.33;2.13;;;7.80;99.90;;;;;;5053099;28;20232;-85
2022/09/23 04:09:29;;;;;;;2.15;2.05;;;7.80;99.90;;;;;;5052605;28;20222;-85
2022/09/23 04:11:57;;;;;;;4.93;2.50;;;7.80;99.90;;;;;;5052773;28;20198;-86
2022/09/23 04:14:26;;;;;;;4.13;3.70;;;7.70;99.90;;;;;;5052802;28;20212;-86
2022/09/23 04:16:54;;;;;;;2.58;2.17;;;7.60;99.90;;;;;;5052813;28;20202;-86
2022/09/23 04:19:22;;;;;;;2.33;2.20;;;7.60;99.90;;;;;;5052425;28;20236;-86
2022/09/23 04:21:50;;;;;;;2.40;2.10;;;7.60;99.90;;;;;;5052712;28;20225;-87
2022/09/23 04:24:19;;;;;;;4.18;2.75;;;7.50;99.90;;;;;;5052980;28;20210;-87
2022/09/23 04:26:52;;;;;;;2.55;2.35;;;7.50;99.90;;;;;;5052943;28;20213;-87
2022/09/23 04:29:20;;;;;;;2.40;2.22;;;7.50;99.90;;;;;;5052282;28;20241;-87
2022/09/23 04:31:49;;;;;;;3.47;2.10;;;7.50;99.90;;;;;;5052790;28;20206;-87
2022/09/23 04:34:18;;;;;;;2.53;2.33;;;7.50;99.90;;;;;;5052568;28;20216;-87
2022/09/23 04:36:47;;;;;;;3.60;2.60;;;7.50;99.90;;;;;;5052341;28;20236;-87
2022/09/23 04:39:17;;;;;;;2.90;2.13;;;7.50;99.90;;;;;;5052810;28;20232;-87
2022/09/23 04:41:46;;;;;;;2.78;2.58;;;7.50;99.90;;;;;;5052437;28;20221;-87
2022/09/23 04:44:16;;;;;;;2.50;2.30;;;7.40;99.90;;;;;;5052130;28;20206;-87
2022/09/23 04:46:46;;;;;;;6.13;2.90;;;7.40;99.90;;;;;;5052476;28;20212;-87
2022/09/23 04:49:15;;;;;;;2.33;2.13;;;7.40;99.90;;;;;;5052416;28;20225;-87
2022/09/23 04:51:43;;;;;;;2.80;2.25;;;7.40;99.90;;;;;;5052935;28;20202;-87
2022/09/23 04:54:13;;;;;;;1.73;1.63;;;7.40;99.90;;;;;;5052435;28;20215;-87
2022/09/23 04:56:41;;;;;;;2.10;1.95;;;7.40;99.90;;;;;;5054126;28;20212;-87
2022/09/23 04:59:10;;;;;;;2.40;2.20;;;7.40;99.90;;;;;;5056399;28;20225;-85
2022/09/23 05:01:40;;;;;;;3.53;2.60;;;7.40;99.90;;;;;;5056789;28;20225;-85
2022/09/23 05:04:12;;;;;;;2.78;2.55;;;7.30;99.90;;;;;;5056903;28;20206;-85
2022/09/23 05:06:43;;;;;;;3.00;2.45;;;7.30;99.90;;;;;;5056560;28;20213;-85
2022/09/23 05:09:15;;;;;;;2.38;2.13;;;7.30;99.90;;;;;;5056037;28;20234;-85
2022/09/23 05:11:44;;;;;;;3.13;2.80;;;7.30;99.90;;;;;;5056411;28;20217;-86
2022/09/23 05:14:12;;;;;;;4.32;2.95;;;7.30;99.90;;;;;;5055782;28;20212;-85
2022/09/23 05:16:42;;;;;;;3.55;2.75;;;7.20;99.90;;;;;;5056336;28;20213;-85
2022/09/23 05:19:12;;;;;;;2.65;2.45;;;7.30;99.90;;;;;;5056041;28;20259;-85
2022/09/23 05:21:40;;;;;;;2.38;2.00;;;7.30;99.90;;;;;;5055842;28;20313;-85
2022/09/23 05:24:09;;;;;;;2.80;2.55;;;7.30;99.90;;;;;;5055914;28;20205;-85
2022/09/23 05:26:38;;;;;;;2.50;2.30;;;7.30;99.90;;;;;;5056361;28;20213;-87
2022/09/23 05:29:06;;;;;;;2.30;2.10;;;7.40;99.90;;;;;;5055722;28;20238;-85
2022/09/23 05:31:35;;;;;;;2.40;2.10;;;7.30;99.90;;;;;;5055830;28;20201;-85
2022/09/23 05:34:06;;;;;;;2.83;2.50;;;7.40;99.90;;;;;;5055743;28;20217;-86
2022/09/23 05:36:36;;;;;;;5.68;3.08;;;7.40;99.90;;;;;;5055693;28;20206;-87
2022/09/23 05:39:07;;;;;;;6.07;2.88;;;7.50;99.90;;;;;;5055538;28;20226;-86
2022/09/23 05:41:37;;;;;;;3.55;3.25;;;7.50;99.90;;;;;;5055980;28;20226;-86
2022/09/23 05:44:05;;;;;;;3.05;2.72;;;7.50;99.90;;;;;;5055695;28;20209;-85
2022/09/23 05:46:33;;;;;;;2.85;2.63;;;7.50;99.90;;;;;;5055574;28;20212;-86
2022/09/23 05:49:03;;;;;;;14.45;3.28;;;7.60;99.90;;;;;;5055181;28;20230;-85
2022/09/23 05:51:34;;;;;;;4.00;2.42;;;7.60;99.90;;;;;;5055439;28;20209;-85
2022/09/23 05:54:04;;;;;;;3.40;2.80;;;7.70;99.90;;;;;;5055531;28;20238;-85
2022/09/23 05:56:34;;;;;;;2.63;2.42;;;7.70;99.90;;;;;;5055973;28;20293;-85
2022/09/23 05:59:03;;;;;;;6.57;3.47;;;7.80;99.90;;;;;;5054999;28;20236;-86
2022/09/23 06:01:34;;;;;;;7.82;3.63;;;7.80;99.90;;;;;;5055205;28;20226;-86
2022/09/23 06:04:04;;;;;;;3.33;3.03;;;7.80;99.90;;;;;;5055378;28;20208;-86
2022/09/23 06:06:37;;;;;;;3.28;3.08;;;7.80;99.90;;;;;;5055165;28;20233;-86
2022/09/23 06:09:06;;;;;;;2.75;2.55;;;7.90;99.90;;;;;;5055096;28;20229;-86
2022/09/23 06:11:35;;;;;;;3.13;2.80;;;7.90;99.90;;;;;;5055131;28;20228;-85
2022/09/23 06:14:04;;;;;;;3.30;3.00;;;8.00;99.90;;;;;;5055076;28;20213;-85
2022/09/23 06:16:33;;;;;;;2.85;2.65;;;8.00;99.90;;;;;;5054989;28;20240;-86
2022/09/23 06:19:04;;;;;;;3.58;3.28;;;8.10;99.90;;;;;;5054789;28;20233;-86
2022/09/23 06:21:37;;;;;;;3.00;2.40;;;8.10;99.90;;;;;;5054893;28;20206;-86
2022/09/23 06:24:05;;;;;;;2.97;2.78;;;8.10;99.90;;;;;;5054853;28;20213;-85
2022/09/23 06:26:35;;;;;;;4.63;3.80;;;8.20;99.90;;;;;;5054370;28;20210;-86
2022/09/23 06:29:04;;;;;;;3.40;3.10;;;8.20;99.90;;;;;;5054787;28;20241;-86
2022/09/23 06:31:33;;;;;;;3.88;3.47;;;8.20;99.90;;;;;;5054745;28;20208;-86
2022/09/23 06:34:01;;;;;;;4.32;3.92;;;8.30;99.90;;;;;;5054943;28;20214;-85
2022/09/23 06:36:39;;;;;;;3.90;3.60;;;8.30;99.90;;;;;;5054520;28;20209;-85
2022/09/23 06:39:13;;;;;;;6.82;3.70;;;8.40;99.90;;;;;;5054358;28;20231;-85
2022/09/23 06:41:41;;;;;;;3.40;3.10;;;8.40;99.90;;;;;;5054448;28;20244;-85
2022/09/23 06:44:09;;;;;;;8.88;3.75;;;8.40;99.90;;;;;;5054387;28;20210;-85
2022/09/23 06:46:37;;;;;;;3.45;3.15;;;8.50;99.90;;;;;;5054624;28;20206;-85
2022/09/23 06:49:06;;;;;;;3.95;3.60;;;8.50;99.90;;;;;;5054004;28;20225;-85
2022/09/23 06:51:34;;;;;;;3.97;3.58;;;8.50;99.90;;;;;;5054336;28;20245;-85
2022/09/23 06:54:04;;;;;;;3.55;3.20;;;8.60;99.90;;;;;;5054390;28;20206;-85
2022/09/23 06:56:33;;;;;;;4.63;4.22;;;8.60;99.90;;;;;;5054199;28;20220;-86
2022/09/23 06:59:07;;;;;;;7.65;3.50;;;8.70;99.90;;;;;;5053940;28;20222;-86
2022/09/23 07:01:35;;;;;;;4.85;4.43;;;8.70;99.90;;;;;;5052300;28;20293;-86
2022/09/23 07:04:03;;;;;;;4.88;3.83;;;8.80;99.90;;;;;;5051692;28;20221;-86
2022/09/23 07:06:32;;;;;;;3.38;3.08;;;8.80;99.90;;;;;;5051412;28;20264;-86
2022/09/23 07:09:00;;;;;;;4.25;3.65;;;8.90;99.90;;;;;;5052260;28;20230;-85
2022/09/23 07:11:30;;;;;;;3.95;3.45;;;8.90;99.90;;;;;;5051890;28;20216;-86
2022/09/23 07:13:58;;;;;;;3.97;3.67;;;9.00;99.90;;;;;;5051656;28;20229;-85
2022/09/23 07:16:26;;;;;;;4.40;3.72;;;9.10;99.90;;;;;;5051640;28;20209;-85
2022/09/23 07:18:55;;;;;;;5.00;4.38;;;9.20;99.90;;;;;;5050613;28;20229;-86
2022/09/23 07:21:23;;;;;;;5.07;4.10;;;9.30;99.90;;;;;;5051833;28;20224;-86
2022/09/23 07:23:52;;;;;;;11.77;5.00;;;9.30;99.90;;;;;;5051503;28;20237;-86
2022/09/23 07:26:21;;;;;;;4.55;4.13;;;9.40;99.90;;;;;;5051711;28;20218;-86
2022/09/23 07:28:55;;;;;;;8.70;5.60;;;9.50;99.90;;;;;;5051820;28;20256;-85
2022/09/23 07:31:24;;;;;;;9.90;5.13;;;9.60;99.90;;;;;;5051554;28;20210;-85
2022/09/23 07:34:07;;;;;;;5.50;4.80;;;9.70;99.90;;;;;;5051265;28;20277;-85
2022/09/23 07:36:36;;;;;;;5.53;4.88;;;9.70;99.90;;;;;;5050978;28;20206;-84
2022/09/23 07:39:04;;;;;;;5.40;4.82;;;9.90;99.90;;;;;;5051139;28;20226;-85
2022/09/23 07:41:34;;;;;;;9.93;4.68;;;10.00;99.90;;;;;;5051266;28;20221;-84
2022/09/23 07:44:04;;;;;;;4.28;3.95;;;10.10;99.90;;;;;;5051588;28;20230;-84
2022/09/23 07:46:35;;;;;;;4.32;4.00;;;10.20;99.90;;;;;;5051088;28;20213;-85
2022/09/23 07:49:04;;;;;;;4.35;3.92;;;10.30;99.90;;;;;;5050715;28;20261;-86
2022/09/23 07:51:35;;;;;;;5.30;3.95;;;10.40;99.90;;;;;;5051347;28;20209;-85
2022/09/23 07:54:07;;;;;;;11.85;3.92;;;10.50;99.90;;;;;;5051361;28;20213;-86
2022/09/23 07:56:37;;;;;;;4.57;3.90;;;10.70;99.90;;;;;;5050877;28;20202;-82
2022/09/23 07:59:08;;;;;;;4.18;3.78;;;10.90;99.90;;;;;;5045836;28;20232;-81
2022/09/23 08:01:38;;;;;;;3.38;3.10;;;11.10;99.90;;;;;;5054780;28;20206;-82
2022/09/23 08:04:10;;;;;;;3.83;3.15;;;11.20;99.90;;;;;;5057148;28;20228;-81
2022/09/23 08:06:42;;;;;;;3.45;3.13;;;11.30;99.90;;;;;;5051041;28;20210;-81
2022/09/23 08:09:10;;;;;;;4.50;4.07;;;11.50;99.90;;;;;;5048909;28;20226;-80
2022/09/23 08:11:40;;;;;;;3.88;3.50;;;11.70;99.90;;;;;;5050621;28;20201;-81
2022/09/23 08:14:12;;;;;;;4.18;3.78;;;11.90;99.90;;;;;;5051127;28;20255;-87
2022/09/23 08:16:41;;;;;;;4.75;3.20;;;12.10;99.90;;;;;;5044416;28;20220;-83
2022/09/23 08:19:10;;;;;;;4.20;3.80;;;12.30;99.90;;;;;;5050975;28;20224;-83
2022/09/23 08:21:39;;;;;;;4.18;3.17;;;12.40;99.90;;;;;;5051237;28;20224;-83
2022/09/23 08:24:09;;;;;;;5.95;4.00;;;12.70;99.90;;;;;;5050435;28;20224;-82
2022/09/23 08:26:37;;;;;;;3.63;3.28;;;13.00;99.90;;;;;;5050739;28;20296;-83
2022/09/23 08:29:08;;;;;;;4.57;3.72;;;13.20;99.90;;;;;;5050761;28;20233;-83
2022/09/23 08:31:38;;;;;;;4.40;3.55;;;13.60;99.90;;;;;;5050914;28;20209;-83
2022/09/23 08:34:06;;;;;;;9.95;3.70;;;13.80;99.90;;;;;;5052638;28;20210;-83
2022/09/23 08:36:35;;;;;;;4.55;3.60;;;14.00;99.90;;;;;;5053503;28;20209;-83
2022/09/23 08:39:06;;;;;;;5.90;3.42;;;14.20;99.90;;;;;;5052431;28;20282;-84
2022/09/23 08:41:42;;;;;;;5.40;3.17;;;14.60;99.90;;;;;;5052531;28;20271;-83
2022/09/23 08:44:16;;;;;;;2.65;2.45;;;15.10;99.90;;;;;;5052381;28;20229;-83
2022/09/23 08:47:10;;;;;;;3.00;2.60;;;15.80;99.90;;;;;;5053130;28;20213;-83
2022/09/23 08:49:52;;;;;;;3.78;3.03;;;16.80;99.90;;;;;;5051782;28;20209;-86
2022/09/23 08:52:36;;;;;;;5.38;3.05;;;17.70;99.90;;;;;;5052683;28;20210;-86
2022/09/23 08:55:11;;;;;;;3.03;2.70;;;18.60;99.90;;;;;;5052758;28;20213;-86
2022/09/23 08:57:58;;;;;;;5.80;3.10;;;19.20;99.90;;;;;;5052723;28;20194;-86
2022/09/23 09:00:56;;;;;;;4.38;3.28;;;19.80;99.90;;;;;;5035691;28;20268;-86
2022/09/23 09:03:33;;;;;;;3.55;2.75;;;20.60;99.90;;;;;;5052584;28;20232;-85
2022/09/23 09:06:02;;;;;;;3.30;2.97;;;20.80;99.90;;;;;;5052866;28;20201;-85
2022/09/23 09:08:35;;;;;;;8.57;3.10;;;21.20;99.90;;;;;;5052674;28;20226;-87
2022/09/23 09:11:14;;;;;;;8.82;3.88;;;21.90;99.90;;;;;;5063071;28;20201;-84
2022/09/23 09:13:50;;;;;;;3.08;2.85;;;22.40;99.90;;;;;;5073199;28;20201;-83
2022/09/23 09:16:38;;;;;;;3.50;3.20;;;22.80;98.20;;;;;;5072820;28;20207;-84
2022/09/23 09:19:55;;;;;;;5.55;3.25;;;23.40;97.00;;;;;;5070479;28;20236;-83
2022/09/23 09:22:37;;;;;;;2.97;2.78;;;23.70;97.50;;;;;;5052762;28;20206;-83
2022/09/23 09:25:18;;;;;;;3.05;2.58;;;24.10;94.90;;;;;;5052354;28;20228;-85
2022/09/23 09:27:48;;;;;;;6.05;3.05;;;24.30;92.60;;;;;;5052096;28;20200;-83
2022/09/23 09:30:17;;;;;;;3.25;3.00;;;24.10;93.90;;;;;;5051244;28;20292;-83
2022/09/23 09:32:48;;;;;;;3.45;3.15;;;23.80;93.00;;;;;;5052529;28;20209;-82
2022/09/23 09:35:27;;;;;;;3.08;2.88;;;23.40;91.80;;;;;;5052176;28;20201;-83
2022/09/23 09:37:56;;;;;;;4.90;3.55;;;23.10;91.70;;;;;;5052442;28;20202;-82
2022/09/23 09:40:24;;;;;;;4.82;3.25;;;22.60;91.30;;;;;;5051933;28;20226;-83
2022/09/23 09:42:52;;;;;;;3.35;3.05;;;22.80;90.80;;;;;;5053507;28;20249;-81
2022/09/23 09:45:30;;;;;;;3.20;2.92;;;23.10;92.00;;;;;;5055444;28;20214;-83
2022/09/23 09:48:07;;;;;;;7.65;3.75;;;23.00;90.00;;;;;;5056340;28;20285;-82
2022/09/23 09:50:45;;;;;;;4.35;3.22;;;22.90;90.20;;;;;;5055246;28;20204;-82
2022/09/23 09:53:24;;;;;;;2.55;2.38;;;22.90;92.20;;;;;;5036388;28;20209;-82
2022/09/23 09:56:04;;;;;;;4.45;3.00;;;22.60;92.00;;;;;;5050607;28;20247;-83
2022/09/23 09:58:39;;;;;;;3.10;2.90;;;22.60;91.70;;;;;;5055587;28;20267;-83
2022/09/23 10:01:08;;;;;;;4.53;2.72;;;22.30;91.20;;;;;;5054968;28;20205;-82
2022/09/23 10:03:43;;;;;;;2.60;2.40;;;22.20;92.10;;;;;;5055695;28;20198;-83
2022/09/23 10:06:22;;;;;;;2.67;2.47;;;22.00;93.20;;;;;;5055187;28;20219;-83
2022/09/23 10:09:09;;;;;;;2.45;2.25;;;22.10;91.60;;;;;;5035637;28;20231;-82
2022/09/23 10:11:39;;;;;;;7.38;2.83;;;22.00;91.40;;;;;;5049847;28;20228;-84
2022/09/23 10:14:13;;;;;;;3.33;2.70;;;22.20;92.60;;;;;;5054979;28;20186;-84
2022/09/23 10:16:41;;;;;;;2.88;2.58;;;22.40;92.60;;;;;;5046984;28;20212;-84
2022/09/23 10:19:21;;;;;;;2.72;2.08;;;22.60;92.50;;;;;;5055273;28;20226;-84
2022/09/23 10:21:58;;;;;;;2.42;2.22;;;22.70;91.60;;;;;;5055347;28;20205;-84
2022/09/23 10:24:29;;;;;;;3.15;2.75;;;22.80;90.50;;;;;;5055542;28;20209;-84
2022/09/23 10:27:01;;;;;;;3.38;3.05;;;22.50;90.40;;;;;;5055379;28;20206;-84
2022/09/23 10:29:32;;;;;;;2.67;2.33;;;22.10;91.00;;;;;;5055014;28;20237;-84
2022/09/23 10:32:25;;;;;;;2.28;2.08;;;22.30;91.30;;;;;;5055085;28;20241;-84
2022/09/23 10:34:57;;;;;;;2.38;2.20;;;22.20;91.20;;;;;;5055436;28;20202;-84
2022/09/23 10:37:36;;;;;;;3.00;2.80;;;22.10;91.50;;;;;;5055347;28;20209;-84
2022/09/23 10:46:41;;;;;;;2.60;2.40;;;23.10;90.70;;;;;;5054291;28;20205;-83
2022/09/23 10:49:36;;;;;;;2.38;2.17;;;23.60;88.00;;;;;;5054950;28;20233;-83
2022/09/23 10:52:22;;;;;;;2.30;2.10;;;23.70;88.60;;;;;;5054624;28;20209;-83
2022/09/23 10:55:04;;;;;;;2.33;2.15;;;23.80;87.90;;;;;;5054095;28;20198;-84
2022/09/23 10:57:48;;;;;;;3.60;2.03;;;24.10;82.20;;;;;;5054712;28;20217;-83
2022/09/23 11:00:22;;;;;;;2.42;2.22;;;23.80;85.20;;;;;;5054752;28;20229;-83
2022/09/23 11:03:34;;;;;;;4.43;1.58;;;23.80;89.00;;;;;;5054584;28;20197;-83
2022/09/23 11:06:14;;;;;;;3.17;2.50;;;24.00;87.20;;;;;;5040025;28;20228;-84
2022/09/23 11:08:56;;;;;;;2.72;2.53;;;24.10;88.10;;;;;;5057671;28;20221;-87
2022/09/23 11:11:37;;;;;;;2.15;2.03;;;24.40;88.00;;;;;;5054247;28;20194;-86
2022/09/23 11:14:22;;;;;;;2.33;2.13;;;24.90;84.40;;;;;;5054359;28;20259;-84
2022/09/23 11:17:12;;;;;;;2.28;2.08;;;24.90;85.80;;;;;;5054339;28;20206;-80
2022/09/23 11:20:07;;;;;;;3.90;2.38;;;24.90;83.00;;;;;;5054385;28;20233;-82
2022/09/23 11:22:53;;;;;;;3.33;2.47;;;24.80;81.10;;;;;;5054734;28;20288;-80
2022/09/23 11:25:46;;;;;;;2.90;2.60;;;25.10;81.20;;;;;;5054114;28;20225;-80
2022/09/23 11:28:34;;;;;;;3.47;2.60;;;25.20;80.90;;;;;;5054060;28;20209;-79
2022/09/23 11:31:13;;;;;;;5.15;2.83;;;25.10;81.30;;;;;;5054275;28;20221;-77
2022/09/23 11:34:03;;;;;;;2.97;2.15;;;24.90;82.20;;;;;;5054190;28;20293;-79
2022/09/23 11:36:39;;;;;;;3.17;1.98;;;24.70;78.90;;;;;;5053949;28;20218;-79
2022/09/23 11:39:12;;;;;;;2.22;2.00;;;24.70;80.00;;;;;;5053701;28;20240;-75
2022/09/23 11:41:44;;;;;;;3.88;2.30;;;24.40;82.00;;;;;;5056681;28;20201;-82
2022/09/23 11:44:23;;;;;;;2.85;2.17;;;24.30;82.10;;;;;;5063456;28;20201;-80
2022/09/23 11:46:56;;;;;;;3.22;2.30;;;24.20;80.60;;;;;;5053826;28;20197;-79
2022/09/23 11:49:31;;;;;;;1.60;1.50;;;24.30;80.70;;;;;;5053821;28;20237;-79
2022/09/23 11:52:08;;;;;;;2.65;2.03;;;24.40;80.50;;;;;;5053584;28;20202;-79
2022/09/23 11:54:43;;;;;;;3.92;2.40;;;24.70;78.50;;;;;;5053699;28;20213;-79
2022/09/23 11:57:21;;;;;;;1.88;1.75;;;24.70;78.90;;;;;;5053770;28;20201;-79
2022/09/23 11:59:59;;;;;;;2.20;1.70;;;24.30;76.70;;;;;;5052919;28;20233;-79
2022/09/23 12:02:33;;;;;;;1.70;1.60;;;24.30;79.50;;;;;;5053741;28;20201;-76
2022/09/23 12:05:06;;;;;;;4.72;2.17;;;24.30;77.00;;;;;;5053126;28;20221;-76
2022/09/23 12:07:46;;;;;;;2.58;1.73;;;24.30;75.80;;;;;;5053881;28;20267;-76
2022/09/23 12:10:19;;;;;;;1.63;1.52;;;24.10;78.00;;;;;;5052835;28;20245;-76
2022/09/23 12:13:17;;;;;;;1.77;1.67;;;23.90;74.10;;;;;;5052948;28;20198;-76
2022/09/23 12:16:05;;;;;;;3.95;1.90;;;24.00;76.20;;;;;;5053083;28;20194;-76
2022/09/23 12:18:51;;;;;;;1.50;1.40;;;23.70;75.70;;;;;;5069372;28;20220;-76
2022/09/23 12:21:51;;;;;;;1.65;1.52;;;23.70;75.20;;;;;;5068011;28;20198;-76
2022/09/23 12:24:40;;;;;;;3.08;1.67;;;24.10;76.50;;;;;;5045101;28;20222;-79
2022/09/23 12:27:22;;;;;;;3.90;1.65;;;24.00;75.70;;;;;;5053411;28;20232;-79
2022/09/23 12:29:55;;;;;;;2.03;1.80;;;24.30;77.00;;;;;;5053181;28;20244;-79
2022/09/23 12:32:26;;;;;;;2.10;1.70;;;24.30;74.40;;;;;;5052815;28;20255;-79
2022/09/23 12:34:55;;;;;;;1.73;1.63;;;24.50;74.70;;;;;;5053121;28;20198;-79
2022/09/23 12:37:27;;;;;;;1.55;1.45;;;24.40;75.70;;;;;;5052951;28;20212;-79
2022/09/23 12:40:10;;;;;;;7.32;1.80;;;24.30;73.70;;;;;;5052711;28;20251;-80
2022/09/23 12:42:44;;;;;;;2.28;1.63;;;24.10;74.30;;;;;;5052915;28;20227;-79
2022/09/23 12:45:33;;;;;;;2.28;1.60;;;24.10;74.80;;;;;;5053170;28;20232;-78
2022/09/23 12:48:05;;;;;;;1.50;1.40;;;24.40;75.70;;;;;;5052405;28;20284;-79
2022/09/23 12:50:55;;;;;;;2.85;1.73;;;24.30;74.30;;;;;;5052542;28;20226;-76
2022/09/23 12:53:58;;;;;;;18.80;1.92;;;24.20;73.90;;;;;;5052477;28;20331;-75
2022/09/23 12:56:42;;;;;;;2.15;1.80;;;24.60;70.20;;;;;;5052076;28;20190;-75
2022/09/23 12:59:24;;;;;;;1.75;1.65;;;24.80;69.40;;;;;;5052210;28;20217;-75
2022/09/23 13:01:55;;;;;;;1.95;1.77;;;24.50;73.90;;;;;;5052429;28;20205;-77
2022/09/23 13:07:32;;;;;;;1.55;1.45;;;24.10;71.30;;;;;;5052358;28;20209;-79
2022/09/23 13:10:12;;;;;;;1.50;1.40;;;23.90;71.20;;;;;;5052154;28;20230;-80
2022/09/23 13:12:43;;;;;;;1.98;1.80;;;23.70;68.70;;;;;;5051920;28;20220;-79
2022/09/23 13:15:20;;;;;;;1.85;1.60;;;23.70;68.50;;;;;;5052751;28;20198;-86
2022/09/23 13:17:48;;;;;;;1.58;1.48;;;23.80;72.20;;;;;;5054471;28;20220;-86
2022/09/23 13:20:37;;;;;;;2.53;1.63;;;23.80;71.50;;;;;;5056042;28;20229;-79
2022/09/23 13:23:20;;;;;;;1.67;1.58;;;23.90;75.30;;;;;;5055654;28;20212;-88
2022/09/23 13:25:50;;;;;;;1.38;1.27;;;23.90;73.50;;;;;;5056844;28;20224;-88
2022/09/23 13:28:27;;;;;;;1.83;1.73;;;24.10;74.90;;;;;;5055930;28;20212;-87
2022/09/23 13:30:55;;;;;;;1.60;1.50;;;24.40;73.20;;;;;;5054348;28;20224;-89
2022/09/23 13:33:33;;;;;;;1.83;1.70;;;24.50;72.40;;;;;;5053486;28;20214;-88
2022/09/23 13:36:05;;;;;;;2.45;2.25;;;24.70;72.80;;;;;;5053359;28;20209;-88
2022/09/23 13:38:34;;;;;;;2.03;1.55;;;24.70;70.80;;;;;;5053038;28;20321;-88
2022/09/23 13:41:05;;;;;;;1.80;1.67;;;24.60;69.90;;;;;;5053217;28;20210;-88